地図

経路データ

SID SEASON NUMBER BASIN SUBBASIN NAME ISO_TIME NATURE LAT LON WMO_WIND WMO_PRES WMO_AGENCY TRACK_TYPE DIST2LAND LANDFALL IFLAG USA_AGENCY USA_ATCF_ID USA_LAT USA_LON USA_RECORD USA_STATUS USA_WIND USA_PRES USA_SSHS USA_R34_NE USA_R34_SE USA_R34_SW USA_R34_NW USA_R50_NE USA_R50_SE USA_R50_SW USA_R50_NW USA_R64_NE USA_R64_SE USA_R64_SW USA_R64_NW USA_POCI USA_ROCI USA_RMW USA_EYE TOKYO_LAT TOKYO_LON TOKYO_GRADE TOKYO_WIND TOKYO_PRES TOKYO_R50_DIR TOKYO_R50_LONG TOKYO_R50_SHORT TOKYO_R30_DIR TOKYO_R30_LONG TOKYO_R30_SHORT TOKYO_LAND CMA_LAT CMA_LON CMA_CAT CMA_WIND CMA_PRES HKO_LAT HKO_LON HKO_CAT HKO_WIND HKO_PRES NEWDELHI_LAT NEWDELHI_LON NEWDELHI_GRADE NEWDELHI_WIND NEWDELHI_PRES NEWDELHI_CI NEWDELHI_DP NEWDELHI_POCI REUNION_LAT REUNION_LON REUNION_TYPE REUNION_WIND REUNION_PRES REUNION_TNUM REUNION_CI REUNION_RMW REUNION_R34_NE REUNION_R34_SE REUNION_R34_SW REUNION_R34_NW REUNION_R50_NE REUNION_R50_SE REUNION_R50_SW REUNION_R50_NW REUNION_R64_NE REUNION_R64_SE REUNION_R64_SW REUNION_R64_NW BOM_LAT BOM_LON BOM_TYPE BOM_WIND BOM_PRES BOM_TNUM BOM_CI BOM_RMW BOM_R34_NE BOM_R34_SE BOM_R34_SW BOM_R34_NW BOM_R50_NE BOM_R50_SE BOM_R50_SW BOM_R50_NW BOM_R64_NE BOM_R64_SE BOM_R64_SW BOM_R64_NW BOM_ROCI BOM_POCI BOM_EYE BOM_POS_METHOD BOM_PRES_METHOD NADI_LAT NADI_LON NADI_CAT NADI_WIND NADI_PRES WELLINGTON_LAT WELLINGTON_LON WELLINGTON_WIND WELLINGTON_PRES DS824_LAT DS824_LON DS824_STAGE DS824_WIND DS824_PRES TD9636_LAT TD9636_LON TD9636_STAGE TD9636_WIND TD9636_PRES TD9635_LAT TD9635_LON TD9635_WIND TD9635_PRES TD9635_ROCI NEUMANN_LAT NEUMANN_LON NEUMANN_CLASS NEUMANN_WIND NEUMANN_PRES MLC_LAT MLC_LON MLC_CLASS MLC_WIND MLC_PRES USA_GUST BOM_GUST BOM_GUST_PER REUNION_GUST REUNION_GUST_PER USA_SEAHGT USA_SEARAD_NE USA_SEARAD_SE USA_SEARAD_SW USA_SEARAD_NW STORM_SPEED STORM_DIR
1936164N18273 1936 15 NA CS NOT_NAMED 1936-06-12 00:00:00 TS 18.1000 -87.3000 30 hurdat_atl main 54 54 O_____________ hurdat_atl AL011936 18.1000 -87.3000 TD 30 -1 11 43
1936164N18273 1936 15 NA CS NOT_NAMED 1936-06-12 03:00:00 TS 18.4978 -86.9080 main 85 85 P_____________ AL011936 18.4978 -86.9080 TD 32 -1 10 40
1936164N18273 1936 15 NA CS NOT_NAMED 1936-06-12 06:00:00 TS 18.9000 -86.6000 35 hurdat_atl main 100 97 O_____________ hurdat_atl AL011936 18.9000 -86.6000 TS 35 0 9 29
1936164N18273 1936 15 NA CS NOT_NAMED 1936-06-12 09:00:00 TS 19.3074 -86.4399 main 107 104 P_____________ AL011936 19.3074 -86.4399 TS 37 0 8 13
1936164N18273 1936 15 NA CS NOT_NAMED 1936-06-12 12:00:00 TS 19.7000 -86.4000 40 hurdat_atl main 107 103 O_____________ hurdat_atl AL011936 19.7000 -86.4000 TS 40 0 8 0
1936164N18273 1936 15 NA CS NOT_NAMED 1936-06-12 15:00:00 TS 20.0575 -86.4274 main 94 61 P_____________ AL011936 20.0575 -86.4274 TS 40 0 7 352
1936164N18273 1936 15 NA CS NOT_NAMED 1936-06-12 18:00:00 TS 20.4000 -86.5000 40 hurdat_atl main 61 43 O_____________ hurdat_atl AL011936 20.4000 -86.5000 TS 40 0 7 350
1936164N18273 1936 15 NA CS NOT_NAMED 1936-06-12 21:00:00 TS 20.7275 -86.5500 main 33 10 P_____________ AL011936 20.7275 -86.5500 TS 40 0 7 352
1936164N18273 1936 15 NA CS NOT_NAMED 1936-06-13 00:00:00 TS 21.1000 -86.6000 40 hurdat_atl main 10 10 O_____________ hurdat_atl AL011936 21.1000 -86.6000 TS 40 0 9 354
1936164N18273 1936 15 NA CS NOT_NAMED 1936-06-13 03:00:00 TS 21.5700 -86.6574 main 30 30 P_____________ AL011936 21.5700 -86.6574 TS 40 0 10 354
1936164N18273 1936 15 NA GM NOT_NAMED 1936-06-13 06:00:00 TS 22.1000 -86.7000 40 hurdat_atl main 73 73 O_____________ hurdat_atl AL011936 22.1000 -86.7000 TS 40 0 11 357
1936164N18273 1936 15 NA GM NOT_NAMED 1936-06-13 09:00:00 TS 22.6725 -86.7224 main 137 137 P_____________ AL011936 22.6725 -86.7224 TS 40 0 11 0
1936164N18273 1936 15 NA GM NOT_NAMED 1936-06-13 12:00:00 TS 23.2000 -86.7000 40 hurdat_atl main 192 192 O_____________ hurdat_atl AL011936 23.2000 -86.7000 TS 40 0 9 7
1936164N18273 1936 15 NA GM NOT_NAMED 1936-06-13 15:00:00 TS 23.6025 -86.6076 main 238 238 P_____________ AL011936 23.6025 -86.6076 TS 40 0 7 15
1936164N18273 1936 15 NA GM NOT_NAMED 1936-06-13 18:00:00 TS 23.9000 -86.5000 40 hurdat_atl main 271 271 O_____________ hurdat_atl AL011936 23.9000 -86.5000 TS 40 0 5 16
1936164N18273 1936 15 NA GM NOT_NAMED 1936-06-13 21:00:00 TS 24.1225 -86.4499 main 284 284 P_____________ AL011936 24.1225 -86.4499 TS 40 0 4 12
1936164N18273 1936 15 NA GM NOT_NAMED 1936-06-14 00:00:00 TS 24.3000 -86.4000 40 hurdat_atl main 301 301 O_____________ hurdat_atl AL011936 24.3000 -86.4000 TS 40 0 4 19
1936164N18273 1936 15 NA GM NOT_NAMED 1936-06-14 03:00:00 TS 24.5075 -86.3075 main 308 308 P_____________ AL011936 24.5075 -86.3075 TS 40 0 4 24
1936164N18273 1936 15 NA GM NOT_NAMED 1936-06-14 06:00:00 TS 24.7000 -86.2000 40 hurdat_atl main 316 316 O_____________ hurdat_atl AL011936 24.7000 -86.2000 TS 40 0 4 24
1936164N18273 1936 15 NA GM NOT_NAMED 1936-06-14 09:00:00 TS 24.8499 -86.1373 main 317 317 P_____________ AL011936 24.8499 -86.1373 TS 40 0 4 31
1936164N18273 1936 15 NA GM NOT_NAMED 1936-06-14 12:00:00 TS 25.0000 -86.0000 40 hurdat_atl main 327 321 O_____________ hurdat_atl AL011936 25.0000 -86.0000 TS 40 0 5 47
1936164N18273 1936 15 NA GM NOT_NAMED 1936-06-14 15:00:00 TS 25.1922 -85.7324 main 328 323 P_____________ AL011936 25.1922 -85.7324 TS 40 0 8 58
1936164N18273 1936 15 NA GM NOT_NAMED 1936-06-14 18:00:00 TS 25.4000 -85.3000 40 998 hurdat_atl main 329 282 O_____________ hurdat_atl AL011936 25.4000 -85.3000 TS 40 998 0 10 65
1936164N18273 1936 15 NA GM NOT_NAMED 1936-06-14 21:00:00 TS 25.6148 -84.7251 main 274 202 P_____________ AL011936 25.6148 -84.7251 TS 40 0 12 71
1936164N18273 1936 15 NA GM NOT_NAMED 1936-06-15 00:00:00 TS 25.8000 -84.0000 40 hurdat_atl main 202 126 O_____________ hurdat_atl AL011936 25.8000 -84.0000 TS 40 0 14 76
1936164N18273 1936 15 NA GM NOT_NAMED 1936-06-15 03:00:00 TS 25.9711 -83.1880 main 126 60 P_____________ AL011936 25.9711 -83.1880 TS 40 0 15 83
1936164N18273 1936 15 NA GM NOT_NAMED 1936-06-15 06:00:00 TS 26.0000 -82.3000 40 hurdat_atl main 51 0 O_____________ hurdat_atl AL011936 26.0000 -82.3000 TS 40 0 16 93
1936164N18273 1936 15 NA GM NOT_NAMED 1936-06-15 08:00:00 TS 25.9000 -81.7000 40 hurdat_atl main 0 0 O_____________ hurdat_atl AL011936 25.9000 -81.7000 L TS 40 0 16 100
1936164N18273 1936 15 NA GM NOT_NAMED 1936-06-15 09:00:00 TS 25.8566 -81.4088 main 0 0 P_____________ AL011936 25.8566 -81.4088 TS 40 0 16 95
1936164N18273 1936 15 NA NA NOT_NAMED 1936-06-15 12:00:00 TS 25.8000 -80.5000 40 1002 hurdat_atl main 0 0 O_____________ hurdat_atl AL011936 25.8000 -80.5000 TS 40 1002 0 18 90
1936164N18273 1936 15 NA NA NOT_NAMED 1936-06-15 15:00:00 TS 25.8590 -79.4087 main 69 69 P_____________ AL011936 25.8590 -79.4087 TS 40 0 21 82
1936164N18273 1936 15 NA NA NOT_NAMED 1936-06-15 18:00:00 TS 26.1000 -78.2000 40 hurdat_atl main 112 111 O_____________ hurdat_atl AL011936 26.1000 -78.2000 TS 40 0 23 73
1936164N18273 1936 15 NA NA NOT_NAMED 1936-06-15 21:00:00 TS 26.5464 -76.9804 main 185 185 P_____________ AL011936 26.5464 -76.9804 TS 40 0 25 66
1936164N18273 1936 15 NA NA NOT_NAMED 1936-06-16 00:00:00 TS 27.1000 -75.7000 40 hurdat_atl main 320 320 O_____________ hurdat_atl AL011936 27.1000 -75.7000 TS 40 0 25 66
1936164N18273 1936 15 NA NA NOT_NAMED 1936-06-16 03:00:00 TS 27.5689 -74.3701 main 454 454 P_____________ AL011936 27.5689 -74.3701 TS 40 0 26 67
1936164N18273 1936 15 NA NA NOT_NAMED 1936-06-16 06:00:00 TS 28.1000 -73.0000 40 hurdat_atl main 599 599 O_____________ hurdat_atl AL011936 28.1000 -73.0000 TS 40 0 27 64
1936164N18273 1936 15 NA NA NOT_NAMED 1936-06-16 09:00:00 TS 28.7541 -71.5989 main 756 756 P_____________ AL011936 28.7541 -71.5989 TS 40 0 28 60
1936164N18273 1936 15 NA NA NOT_NAMED 1936-06-16 12:00:00 TS 29.5000 -70.2000 40 996 hurdat_atl main 828 828 O_____________ hurdat_atl AL011936 29.5000 -70.2000 TS 40 996 0 29 58
1936164N18273 1936 15 NA NA NOT_NAMED 1936-06-16 15:00:00 TS 30.2693 -68.8110 main 868 868 P_____________ AL011936 30.2693 -68.8110 TS 40 0 28 56
1936164N18273 1936 15 NA NA NOT_NAMED 1936-06-16 18:00:00 TS 31.1000 -67.5000 40 hurdat_atl main 906 906 O_____________ hurdat_atl AL011936 31.1000 -67.5000 TS 40 0 27 52
1936164N18273 1936 15 NA NA NOT_NAMED 1936-06-16 21:00:00 TS 31.9612 -66.2950 main 946 946 P_____________ AL011936 31.9612 -66.2950 TS 40 0 27 47
1936164N18273 1936 15 NA NA NOT_NAMED 1936-06-17 00:00:00 TS 32.9000 -65.2000 40 hurdat_atl main 996 996 O_____________ hurdat_atl AL011936 32.9000 -65.2000 TS 40 0 26 42
1936164N18273 1936 15 NA NA NOT_NAMED 1936-06-17 03:00:00 TS 33.9265 -64.1852 main 1005 954 P_____________ AL011936 33.9265 -64.1852 TS 40 0 27 38
1936164N18273 1936 15 NA NA NOT_NAMED 1936-06-17 06:00:00 TS 35.0000 -63.2000 40 hurdat_atl main 951 O_____________ hurdat_atl AL011936 35.0000 -63.2000 TS 40 0 27 37

IBTrACS Databaseについて

本データベースは、米国NOAAが公開する1842年以降の世界の熱帯低気圧のベストトラックデータアーカイブInternational Best Track Archive for Climate Stewardship (IBTrACS)を、ウェブで閲覧しやすい形式に変換したものです。

最終更新日:2021-10-27